Time;durP1;ratioP1;P1;durP2;ratioP2;P2;SDS_P1;SDS_P2;PMS_P1;PMS_P2;Temp;Humidity;BMP_temperature;BMP_pressure;BME280_temperature;BME280_humidity;BME280_pressure;Samples;Min_cycle;Max_cycle;Signal;HPM_P1;HPM_P2
2022/10/30 12:10:28;;;;;;;7.38;2.10;;;;;;;19.24;74.90;99301.25;5118128;27;20389;-78
2022/10/30 12:12:56;;;;;;;10.30;2.42;;;;;;;19.47;76.47;99314.22;5125551;28;20051;-78
2022/10/30 12:15:26;;;;;;;7.05;2.50;;;;;;;19.52;72.90;99302.47;5118289;28;20074;-78
2022/10/30 12:17:53;;;;;;;6.50;1.90;;;;;;;19.59;72.43;99289.41;5120435;28;20043;-78
2022/10/30 12:20:20;;;;;;;7.40;2.38;;;;;;;19.69;68.01;99291.53;5111089;28;21327;-78
2022/10/30 12:22:47;;;;;;;10.88;3.20;;;;;;;19.78;70.34;99285.44;5104983;28;20044;-78
2022/10/30 12:25:23;;;;;;;12.18;2.70;;;;;;;19.78;72.31;99277.19;5115566;28;20048;-79
2022/10/30 12:27:59;;;;;;;5.65;2.63;;;;;;;19.91;70.69;99289.84;5115235;28;20044;-78
2022/10/30 12:30:29;;;;;;;11.90;2.80;;;;;;;19.82;70.89;99279.44;5106086;28;20043;-78
2022/10/30 12:32:58;;;;;;;;;;;;;;;19.96;71.53;99298.25;5112416;28;20053;-78
2022/10/30 12:35:37;;;;;;;7.82;3.15;;;;;;;20.00;73.61;99297.75;5108673;28;20271;-78
2022/10/30 12:38:09;;;;;;;6.32;2.10;;;;;;;19.85;71.92;99267.94;5115694;28;20071;-78
2022/10/30 12:40:41;;;;;;;10.57;2.10;;;;;;;19.97;72.49;99268.72;5117067;28;20040;-78
2022/10/30 12:43:17;;;;;;;8.95;2.40;;;;;;;20.02;74.48;99266.06;5109369;28;20193;-78
2022/10/30 12:45:46;;;;;;;12.77;2.38;;;;;;;20.20;75.80;99298.16;5107338;28;20059;-78
2022/10/30 12:48:22;;;;;;;9.43;2.40;;;;;;;20.14;75.31;99272.41;5106514;28;20269;-78
2022/10/30 12:50:57;;;;;;;9.60;2.30;;;;;;;20.16;75.27;99273.00;5121527;28;20043;-78
2022/10/30 12:53:30;;;;;;;5.65;1.98;;;;;;;20.33;75.82;99291.53;5118994;28;20051;-78
2022/10/30 12:56:15;;;;;;;10.55;2.42;;;;;;;20.36;76.56;99287.44;5114551;28;20071;-78
2022/10/30 12:58:50;;;;;;;11.15;2.60;;;;;;;20.30;78.23;99259.72;5106920;28;20044;-78
2022/10/30 13:01:27;;;;;;;8.50;2.45;;;;;;;20.41;75.48;99282.84;5117469;28;20506;-79
2022/10/30 13:03:59;;;;;;;6.70;2.22;;;;;;;20.47;73.98;99281.88;5112640;28;20047;-78
2022/10/30 13:06:28;;;;;;;12.25;2.33;;;;;;;20.51;72.72;99285.81;5105384;28;20055;-78
2022/10/30 13:09:07;;;;;;;8.25;2.00;;;;;;;20.61;73.19;99270.50;5103915;28;20127;-78
2022/10/30 13:11:42;;;;;;;15.32;2.42;;;;;;;20.65;71.68;99271.69;5115698;28;20414;-78
2022/10/30 13:14:16;;;;;;;8.52;2.38;;;;;;;20.61;74.74;99245.66;5121664;28;20402;-78
2022/10/30 13:16:42;;;;;;;10.38;2.75;;;;;;;20.68;72.23;99252.75;5114392;28;20440;-78
2022/10/30 13:19:11;;;;;;;10.07;2.40;;;;;;;20.74;72.02;99264.69;5119534;28;20542;-78
2022/10/30 13:21:43;;;;;;;7.47;2.03;;;;;;;20.75;72.03;99248.97;5103205;28;20093;-79
2022/10/30 13:24:12;;;;;;;11.50;3.65;;;;;;;20.75;69.34;99252.56;5100548;28;20413;-78
2022/10/30 13:26:45;;;;;;;8.95;2.08;;;;;;;20.83;71.32;99260.44;5089970;28;20043;-78
2022/10/30 13:29:23;;;;;;;4.93;2.20;;;;;;;20.75;68.64;99254.50;5091598;28;20075;-78
2022/10/30 13:32:09;;;;;;;10.55;2.22;;;;;;;20.89;66.44;99266.06;5100213;28;20058;-78
2022/10/30 13:34:44;;;;;;;8.40;2.30;;;;;;;20.87;68.85;99269.09;5086732;28;20052;-79
2022/10/30 13:37:15;;;;;;;7.07;2.35;;;;;;;20.82;68.29;99261.53;5092453;28;20043;-78
2022/10/30 13:39:48;;;;;;;10.20;2.38;;;;;;;20.79;69.67;99244.63;5091121;28;20040;-78
2022/10/30 13:42:29;;;;;;;6.10;2.10;;;;;;;20.76;70.66;99248.72;5104069;28;20077;-79
2022/10/30 13:45:13;;;;;;;7.72;2.58;;;;;;;20.77;71.17;99263.38;5094239;28;20048;-78
2022/10/30 13:47:48;;;;;;;9.63;2.28;;;;;;;20.64;70.28;99246.00;5100761;28;20083;-78
2022/10/30 13:50:32;;;;;;;11.43;2.90;;;;;;;20.73;70.29;99257.53;5097958;28;20135;-78
2022/10/30 13:53:03;;;;;;;5.78;2.22;;;;;;;20.86;73.38;99259.94;5107132;28;20729;-79
2022/10/30 13:55:32;;;;;;;9.75;2.45;;;;;;;20.89;71.75;99249.50;5098838;28;20438;-78
2022/10/30 13:58:04;;;;;;;9.83;2.20;;;;;;;20.89;68.82;99247.56;5101131;28;20483;-78
2022/10/30 14:00:50;;;;;;;7.93;2.58;;;;;;;20.96;68.78;99253.75;5099259;28;20040;-78
2022/10/30 14:03:31;;;;;;;10.52;3.03;;;;;;;20.85;70.39;99238.94;5106579;28;20460;-78
2022/10/30 14:06:09;;;;;;;7.40;2.38;;;;;;;21.01;69.91;99266.81;5103175;28;20043;-78
2022/10/30 14:08:41;;;;;;;6.65;2.30;;;;;;;20.98;70.45;99253.50;5090360;28;20067;-78
2022/10/30 14:11:13;;;;;;;14.10;3.53;;;;;;;20.89;71.52;99243.97;5099469;28;20039;-78
2022/10/30 14:13:52;;;;;;;13.68;1.95;;;;;;;21.00;70.76;99263.22;5097916;28;20054;-79
2022/10/30 14:16:36;;;;;;;12.02;2.40;;;;;;;21.01;71.15;99253.00;5098559;28;20386;-78
2022/10/30 14:19:04;;;;;;;8.45;2.00;;;;;;;21.04;70.41;99238.69;5091632;28;20409;-78
2022/10/30 14:21:42;;;;;;;13.55;2.67;;;;;;;21.08;70.91;99264.72;5095824;28;20070;-79
2022/10/30 14:24:17;;;;;;;19.15;3.88;;;;;;;20.95;72.45;99262.31;5102424;28;20053;-79
2022/10/30 14:26:53;;;;;;;13.32;4.05;;;;;;;20.88;73.89;99258.84;5093060;28;20410;-79
2022/10/30 14:29:41;;;;;;;9.80;2.75;;;;;;;20.63;74.26;99236.03;5099412;28;20209;-79
2022/10/30 14:32:36;;;;;;;8.30;2.78;;;;;;;20.74;77.99;99252.81;5087330;28;20442;-79
2022/10/30 14:35:23;;;;;;;7.85;2.95;;;;;;;20.47;80.30;99236.84;5099083;28;20483;-79
2022/10/30 14:37:56;;;;;;;12.27;2.70;;;;;;;20.36;82.97;99254.31;5094186;28;21280;-78
2022/10/30 14:40:40;;;;;;;12.45;2.38;;;;;;;20.07;85.47;99237.75;5102558;28;20044;-78
2022/10/30 14:43:12;;;;;;;6.00;2.88;;;;;;;20.00;90.59;99245.34;5106870;28;20061;-78
2022/10/30 14:45:45;;;;;;;4.90;2.20;;;;;;;19.79;94.45;99234.69;5100241;28;21581;-78
2022/10/30 14:48:18;;;;;;;8.38;2.58;;;;;;;19.71;97.72;99253.53;5104650;28;20101;-79
2022/10/30 14:51:01;;;;;;;7.22;2.33;;;;;;;19.74;99.22;99251.13;5094537;28;20095;-78
2022/10/30 14:53:42;;;;;;;10.30;2.38;;;;;;;19.56;96.37;99256.78;5095368;28;20044;-79
2022/10/30 14:56:23;;;;;;;9.75;2.10;;;;;;;19.35;96.12;99248.06;5099061;28;20058;-78
2022/10/30 14:59:32;;;;;;;7.43;2.10;;;;;;;19.27;99.49;99262.22;5094130;28;20048;-78
2022/10/30 15:02:25;;;;;;;7.45;2.45;;;;;;;19.17;99.77;99254.53;5059199;28;20083;-78
2022/10/30 15:05:11;;;;;;;6.07;2.60;;;;;;;19.01;100.00;99261.56;5089743;28;20058;-78
2022/10/30 15:07:46;;;;;;;14.05;2.80;;;;;;;18.89;100.00;99267.09;5102567;28;20097;-78
2022/10/30 15:10:22;;;;;;;8.05;2.45;;;;;;;18.87;100.00;99271.97;5098397;28;20479;-78
2022/10/30 15:13:03;;;;;;;9.40;2.80;;;;;;;18.74;100.00;99266.63;5098898;28;21394;-78
2022/10/30 15:15:30;;;;;;;11.73;2.08;;;;;;;18.47;100.00;99249.69;5103485;28;20476;-78
2022/10/30 15:18:01;;;;;;;9.63;3.13;;;;;;;18.44;100.00;99263.94;5089429;28;20047;-78
2022/10/30 15:20:32;;;;;;;7.10;2.95;;;;;;;18.48;100.00;99274.22;5095085;28;20044;-78
2022/10/30 15:23:02;;;;;;;11.93;6.03;;;;;;;18.56;100.00;99270.31;5100715;28;20047;-78
2022/10/30 15:25:34;;;;;;;10.18;3.35;;;;;;;18.32;100.00;99242.72;5096934;28;20134;-78
2022/10/30 15:28:01;;;;;;;13.95;3.25;;;;;;;18.38;100.00;99257.44;5106910;28;20051;-79
2022/10/30 15:30:28;;;;;;;16.05;3.83;;;;;;;18.21;100.00;99271.00;5091043;28;20060;-78
2022/10/30 15:32:55;;;;;;;8.13;3.10;;;;;;;17.86;100.00;99264.22;5090609;28;20051;-78
2022/10/30 15:35:23;;;;;;;9.23;3.05;;;;;;;17.75;100.00;99269.66;5092411;28;20497;-78
2022/10/30 15:38:02;;;;;;;9.05;2.63;;;;;;;17.67;100.00;99262.56;5096366;28;20463;-78
2022/10/30 15:40:29;;;;;;;11.93;3.08;;;;;;;17.57;100.00;99257.59;5088343;28;20523;-78
2022/10/30 15:42:57;;;;;;;13.07;3.55;;;;;;;17.33;100.00;99259.34;5095407;28;20048;-78
2022/10/30 15:45:29;;;;;;;8.00;2.65;;;;;;;17.26;100.00;99258.56;5105395;28;20047;-78
2022/10/30 15:48:00;;;;;;;11.85;2.97;;;;;;;17.40;100.00;99273.00;5096483;28;20127;-78
2022/10/30 15:50:27;;;;;;;10.70;2.55;;;;;;;17.12;100.00;99257.84;5101897;28;20047;-78
2022/10/30 15:52:55;;;;;;;17.48;8.82;;;;;;;16.95;100.00;99260.28;5095079;28;20502;-77
2022/10/30 15:55:29;;;;;;;19.75;11.65;;;;;;;16.88;100.00;99274.09;5096471;28;20035;-78
2022/10/30 15:57:58;;;;;;;7.32;4.47;;;;;;;16.87;100.00;99260.59;5088606;28;20130;-78
2022/10/30 16:00:27;;;;;;;8.55;3.60;;;;;;;16.75;100.00;99250.28;5089464;28;20070;-78
2022/10/30 16:03:02;;;;;;;9.07;3.05;;;;;;;16.69;100.00;99267.66;5090037;28;20048;-78
2022/10/30 16:05:30;;;;;;;11.80;3.25;;;;;;;16.39;100.00;99251.81;5093038;28;20048;-78
2022/10/30 16:07:57;;;;;;;7.88;2.20;;;;;;;16.38;100.00;99272.09;5096724;28;20052;-78
2022/10/30 16:10:29;;;;;;;7.28;2.40;;;;;;;16.14;100.00;99242.66;5095482;28;20055;-78
2022/10/30 16:12:57;;;;;;;9.32;2.90;;;;;;;16.20;100.00;99274.69;5102249;28;20047;-78
2022/10/30 16:15:28;;;;;;;13.80;3.00;;;;;;;15.93;100.00;99253.75;5105004;28;20055;-78
2022/10/30 16:18:06;;;;;;;11.15;2.92;;;;;;;16.00;100.00;99272.06;5097113;28;20050;-78
2022/10/30 16:20:33;;;;;;;9.60;2.42;;;;;;;15.90;100.00;99267.06;5096365;28;20044;-78
2022/10/30 16:23:01;;;;;;;7.93;3.58;;;;;;;15.77;100.00;99270.66;5095638;28;20048;-78
2022/10/30 16:25:30;;;;;;;18.40;3.88;;;;;;;15.93;100.00;99286.66;5090995;28;20122;-78
2022/10/30 16:27:57;;;;;;;10.30;4.28;;;;;;;15.85;100.00;99286.91;5089770;28;20334;-78
2022/10/30 16:30:28;;;;;;;15.10;3.50;;;;;;;15.69;100.00;99281.88;5101390;28;20049;-78
2022/10/30 16:32:54;;;;;;;14.48;4.35;;;;;;;15.62;100.00;99292.81;5098196;28;20538;-78
2022/10/30 16:35:24;;;;;;;9.15;2.60;;;;;;;15.51;100.00;99280.63;5089975;28;20421;-78
2022/10/30 16:37:51;;;;;;;8.25;2.65;;;;;;;15.41;100.00;99277.50;5097055;28;20054;-78
2022/10/30 16:40:22;;;;;;;7.38;3.90;;;;;;;15.43;100.00;99275.41;5097189;28;20127;-78
2022/10/30 16:42:54;;;;;;;10.10;3.05;;;;;;;15.46;100.00;99279.59;5097110;28;20050;-78
2022/10/30 16:45:46;;;;;;;7.82;2.95;;;;;;;15.14;100.00;99272.03;5098832;28;20063;-78
2022/10/30 16:48:17;;;;;;;9.65;2.90;;;;;;;15.06;100.00;99302.38;5080861;28;20078;-78
2022/10/30 16:50:43;;;;;;;10.30;3.55;;;;;;;14.90;100.00;99306.38;5104270;28;20047;-78
2022/10/30 16:53:18;;;;;;;9.13;3.00;;;;;;;14.91;100.00;99307.25;5086823;28;20052;-78
2022/10/30 16:55:45;;;;;;;7.03;3.03;;;;;;;14.78;100.00;99306.16;5092041;28;20127;-78
2022/10/30 16:58:14;;;;;;;15.90;3.13;;;;;;;14.72;100.00;99325.31;5108686;28;20055;-78
2022/10/30 17:00:42;;;;;;;13.50;3.33;;;;;;;14.42;100.00;99299.13;5093166;28;20055;-78
2022/10/30 17:03:10;;;;;;;12.98;3.53;;;;;;;14.46;100.00;99314.06;5097244;28;20126;-78
2022/10/30 17:05:39;;;;;;;11.80;2.88;;;;;;;14.36;100.00;99315.50;5103161;28;20336;-78
2022/10/30 17:08:26;;;;;;;9.43;2.83;;;;;;;14.17;100.00;99307.06;5103923;28;20054;-78
2022/10/30 17:10:58;;;;;;;8.98;3.00;;;;;;;14.11;100.00;99318.81;5097736;28;20040;-78
2022/10/30 17:13:32;;;;;;;8.27;3.17;;;;;;;14.10;100.00;99315.22;5091839;28;20052;-78
2022/10/30 17:16:11;;;;;;;21.83;4.70;;;;;;;14.05;100.00;99319.63;5100069;28;20573;-78
2022/10/30 17:18:40;;;;;;;8.10;3.35;;;;;;;14.01;100.00;99308.22;5091673;28;20499;-77
2022/10/30 17:21:10;;;;;;;11.07;3.33;;;;;;;14.02;100.00;99333.69;5095921;28;20046;-78
2022/10/30 17:23:43;;;;;;;17.08;4.10;;;;;;;13.92;100.00;99318.50;5109539;28;20051;-78
2022/10/30 17:26:12;;;;;;;11.50;3.50;;;;;;;13.81;100.00;99308.16;5113868;28;20624;-78
2022/10/30 17:28:40;;;;;;;18.38;5.18;;;;;;;13.68;100.00;99317.09;5107963;28;20154;-78
2022/10/30 17:31:21;;;;;;;9.55;3.58;;;;;;;13.63;100.00;99338.72;5099319;28;20051;-78
2022/10/30 17:34:03;;;;;;;11.90;3.60;;;;;;;13.70;100.00;99342.34;5102082;28;20582;-78
2022/10/30 17:36:30;;;;;;;10.43;4.35;;;;;;;13.64;100.00;99332.25;5104529;28;20066;-78
2022/10/30 17:38:57;;;;;;;12.65;4.35;;;;;;;13.74;100.00;99345.53;5088740;28;20040;-78
2022/10/30 17:41:23;;;;;;;14.98;7.13;;;;;;;13.54;100.00;99321.66;5096333;28;20463;-78
2022/10/30 17:43:55;;;;;;;25.77;6.47;;;;;;;13.59;100.00;99326.50;5095450;28;20052;-78
2022/10/30 17:46:22;;;;;;;15.27;6.55;;;;;;;13.56;100.00;99337.84;5103243;28;20485;-78
2022/10/30 17:48:48;;;;;;;19.63;9.15;;;;;;;13.63;100.00;99363.31;5101463;28;20044;-78
2022/10/30 17:51:17;;;;;;;27.67;9.40;;;;;;;13.45;100.00;99345.53;5099878;28;20054;-78
2022/10/30 17:53:44;;;;;;;16.38;6.85;;;;;;;13.23;100.00;99335.69;5099879;28;20074;-78
2022/10/30 17:56:14;;;;;;;12.13;5.80;;;;;;;13.13;100.00;99338.75;5095902;28;20396;-78
2022/10/30 17:58:41;;;;;;;15.05;6.20;;;;;;;13.25;100.00;99363.66;5097719;28;20044;-78
2022/10/30 18:01:13;;;;;;;13.70;6.05;;;;;;;13.25;100.00;99355.47;5107377;28;20051;-78
2022/10/30 18:03:39;;;;;;;13.25;4.18;;;;;;;13.20;100.00;99352.47;5104884;28;20052;-78
2022/10/30 18:06:15;;;;;;;12.00;5.38;;;;;;;12.96;100.00;99338.19;5096297;28;20048;-78
2022/10/30 18:08:41;;;;;;;9.90;5.45;;;;;;;12.98;100.00;99357.13;5105159;28;20108;-78
2022/10/30 18:11:11;;;;;;;13.43;4.82;;;;;;;12.78;100.00;99344.13;5101902;28;20035;-78
2022/10/30 18:13:37;;;;;;;12.98;5.35;;;;;;;12.64;100.00;99345.84;5105504;28;20113;-77
2022/10/30 18:16:04;;;;;;;10.23;4.78;;;;;;;12.56;100.00;99343.25;5096854;28;20044;-78
2022/10/30 18:18:32;;;;;;;15.02;4.45;;;;;;;12.62;100.00;99358.84;5093999;28;20047;-77
2022/10/30 18:20:58;;;;;;;12.55;5.15;;;;;;;12.70;100.00;99379.69;5100413;28;20461;-78
2022/10/30 18:23:25;;;;;;;15.90;4.68;;;;;;;12.67;100.00;99366.44;5099643;28;20060;-78
2022/10/30 18:25:52;;;;;;;10.85;4.43;;;;;;;12.79;100.00;99374.97;5090853;28;20079;-78
2022/10/30 18:28:19;;;;;;;13.52;5.05;;;;;;;12.75;100.00;99379.94;5102164;28;20057;-78
2022/10/30 18:30:51;;;;;;;14.18;4.25;;;;;;;12.66;100.00;99367.47;5094272;28;20044;-77
2022/10/30 18:33:18;;;;;;;10.70;4.50;;;;;;;12.60;100.00;99379.16;5101581;28;20056;-78
2022/10/30 18:35:46;;;;;;;12.77;4.25;;;;;;;12.44;100.00;99380.25;5095296;28;20040;-77
2022/10/30 18:38:14;;;;;;;13.35;5.82;;;;;;;12.51;100.00;99371.13;5104807;28;20066;-77
2022/10/30 18:40:42;;;;;;;25.65;9.93;;;;;;;12.67;100.00;99397.28;5091054;28;20115;-77
2022/10/30 18:43:09;;;;;;;22.67;10.80;;;;;;;12.67;100.00;99389.09;5096759;28;20047;-78
2022/10/30 18:45:39;;;;;;;23.17;10.13;;;;;;;12.55;100.00;99394.22;5102564;28;20055;-78
2022/10/30 18:48:06;;;;;;;26.13;11.10;;;;;;;12.41;100.00;99400.56;5100875;28;20044;-78
2022/10/30 18:50:34;;;;;;;19.88;9.95;;;;;;;12.40;100.00;99393.41;5090239;28;20040;-77
2022/10/30 18:53:03;;;;;;;12.10;7.25;;;;;;;12.41;100.00;99395.13;5099625;28;20063;-78
2022/10/30 18:55:33;;;;;;;14.75;5.50;;;;;;;12.47;100.00;99402.53;5091241;28;20051;-77
2022/10/30 18:58:00;;;;;;;;;;;;;;;12.35;100.00;99412.25;5101279;28;20058;-77
2022/10/30 19:00:28;;;;;;;12.82;7.13;;;;;;;12.19;100.00;99386.03;5101285;28;19927;-78
2022/10/30 19:02:55;;;;;;;16.50;6.20;;;;;;;12.13;100.00;99390.34;5093622;28;20040;-78
2022/10/30 19:05:31;;;;;;;9.40;5.38;;;;;;;11.95;100.00;99384.44;5093954;28;20055;-77
2022/10/30 19:07:59;;;;;;;11.23;5.28;;;;;;;12.10;100.00;99417.13;5088898;28;20052;-78
2022/10/30 19:10:29;;;;;;;15.18;5.63;;;;;;;11.81;100.00;99388.84;5096421;28;20043;-77
2022/10/30 19:12:56;;;;;;;;;;;;;;;11.80;100.00;99392.59;5097329;28;20072;-77
2022/10/30 19:15:26;;;;;;;8.75;3.95;;;;;;;11.74;100.00;99375.09;5088971;28;19924;-77
2022/10/30 19:17:53;;;;;;;8.45;3.90;;;;;;;11.69;100.00;99378.41;5092023;28;20135;-77
2022/10/30 19:20:19;;;;;;;13.98;4.65;;;;;;;11.68;100.00;99373.13;5097529;28;20053;-77
2022/10/30 19:22:46;;;;;;;9.38;4.25;;;;;;;11.98;100.00;99403.13;5098587;28;20047;-77
2022/10/30 19:25:18;;;;;;;11.65;4.50;;;;;;;11.98;100.00;99389.50;5093261;28;20051;-77
2022/10/30 19:27:49;;;;;;;14.15;4.20;;;;;;;11.83;100.00;99373.13;5091570;28;20130;-77
2022/10/30 19:30:17;;;;;;;11.90;4.70;;;;;;;11.97;100.00;99402.31;5093618;28;20047;-77
2022/10/30 19:32:44;;;;;;;10.18;4.47;;;;;;;11.92;100.00;99395.69;5088813;28;20051;-77
2022/10/30 19:35:11;;;;;;;11.27;4.93;;;;;;;11.81;100.00;99381.50;5086047;28;20055;-77
2022/10/30 19:37:38;;;;;;;13.38;4.30;;;;;;;12.10;100.00;99423.44;5088394;28;20518;-77
2022/10/30 19:40:22;;;;;;;9.13;3.67;;;;;;;11.81;100.00;99397.00;5092675;28;20067;-77
2022/10/30 19:42:51;;;;;;;23.05;8.75;;;;;;;11.94;100.00;99402.69;5093942;28;20123;-77
2022/10/30 19:45:19;;;;;;;18.77;5.05;;;;;;;11.81;100.00;99397.84;5088564;28;20052;-77
2022/10/30 19:47:48;;;;;;;8.43;3.75;;;;;;;11.71;100.00;99399.16;5089372;28;20044;-77
2022/10/30 19:50:21;;;;;;;8.20;3.35;;;;;;;11.60;100.00;99395.84;5100071;28;20056;-76
2022/10/30 19:52:49;;;;;;;16.55;3.90;;;;;;;11.57;100.00;99401.66;5105665;28;20050;-76
2022/10/30 19:55:16;;;;;;;10.63;3.58;;;;;;;11.39;100.00;99391.13;5104296;28;20059;-76
2022/10/30 19:57:43;;;;;;;7.13;3.33;;;;;;;11.32;100.00;99390.16;5089793;28;20079;-77
2022/10/30 20:00:16;;;;;;;12.10;3.95;;;;;;;11.36;100.00;99393.38;5092514;28;20138;-77
2022/10/30 20:02:43;;;;;;;14.52;4.28;;;;;;;11.46;100.00;99405.69;5096796;28;20066;-77
2022/10/30 20:05:11;;;;;;;12.18;4.70;;;;;;;11.60;100.00;99405.91;5094121;28;20130;-77
2022/10/30 20:07:38;;;;;;;16.98;5.18;;;;;;;11.86;100.00;99419.94;5099740;28;20051;-76
2022/10/30 20:10:14;;;;;;;7.72;4.57;;;;;;;11.80;100.00;99392.59;5097873;28;20111;-77
2022/10/30 20:12:40;;;;;;;33.72;13.23;;;;;;;11.90;100.00;99417.66;5091521;28;20047;-77
2022/10/30 20:15:14;;;;;;;13.57;7.97;;;;;;;11.69;100.00;99418.41;5100941;28;20054;-77
2022/10/30 20:17:41;;;;;;;15.65;6.93;;;;;;;11.87;100.00;99459.75;5094670;28;20538;-77
2022/10/30 20:20:10;;;;;;;16.38;7.47;;;;;;;11.83;100.00;99436.66;5094125;28;20047;-77
2022/10/30 20:22:37;;;;;;;22.38;7.75;;;;;;;11.85;100.00;99442.75;5097691;28;20135;-76
2022/10/30 20:25:04;;;;;;;16.42;7.30;;;;;;;11.65;100.00;99460.66;5097082;28;20075;-76
2022/10/30 20:27:30;;;;;;;20.90;8.90;;;;;;;11.53;100.00;99449.34;5095113;28;20401;-76
2022/10/30 20:29:57;;;;;;;20.65;8.50;;;;;;;11.52;100.00;99451.25;5094142;28;20597;-76
2022/10/30 20:32:25;;;;;;;14.18;6.93;;;;;;;11.62;100.00;99480.09;5094779;28;20056;-76
2022/10/30 20:34:51;;;;;;;16.20;7.28;;;;;;;11.35;100.00;99452.44;5101594;28;20048;-77
2022/10/30 20:37:18;;;;;;;13.65;6.13;;;;;;;11.38;100.00;99445.75;5097326;28;20043;-76
2022/10/30 20:39:44;;;;;;;17.77;5.95;;;;;;;11.26;100.00;99456.22;5099783;28;20069;-76
2022/10/30 20:42:20;;;;;;;14.35;6.45;;;;;;;11.32;100.00;99478.13;5094229;28;20048;-77
2022/10/30 20:44:47;;;;;;;15.35;5.90;;;;;;;11.13;100.00;99451.41;5097852;28;20044;-76
2022/10/30 20:47:14;;;;;;;15.20;5.93;;;;;;;11.15;100.00;99465.66;5100521;28;20100;-76
2022/10/30 20:49:42;;;;;;;14.02;6.15;;;;;;;10.94;100.00;99442.69;5097819;28;20056;-76
2022/10/30 20:52:08;;;;;;;17.25;5.55;;;;;;;10.94;100.00;99452.72;5098471;28;20043;-76
2022/10/30 20:54:35;;;;;;;15.82;5.07;;;;;;;10.93;100.00;99449.16;5098806;28;20471;-76
2022/10/30 20:57:01;;;;;;;15.05;6.15;;;;;;;11.06;100.00;99440.38;5099918;28;20252;-76
2022/10/30 20:59:28;;;;;;;17.50;5.95;;;;;;;11.23;100.00;99465.63;5102620;28;20058;-76
2022/10/30 21:01:54;;;;;;;18.33;5.40;;;;;;;11.16;100.00;99443.72;5100031;28;20490;-76
2022/10/30 21:04:21;;;;;;;20.00;5.25;;;;;;;11.08;100.00;99427.47;5097025;28;20048;-76
2022/10/30 21:06:49;;;;;;;15.73;5.63;;;;;;;11.27;100.00;99450.59;5097881;28;20048;-76
2022/10/30 21:09:15;;;;;;;13.98;4.93;;;;;;;11.14;100.00;99432.19;5101044;28;20490;-76
2022/10/30 21:11:42;;;;;;;10.38;5.38;;;;;;;11.18;100.00;99431.81;5099866;28;20092;-76
2022/10/30 21:14:09;;;;;;;21.23;9.02;;;;;;;11.19;100.00;99433.50;5099056;28;20048;-77
2022/10/30 21:16:35;;;;;;;12.65;5.38;;;;;;;11.32;100.00;99467.25;5102642;28;20066;-76
2022/10/30 21:19:02;;;;;;;11.73;6.30;;;;;;;11.25;100.00;99454.56;5096181;28;20048;-76
2022/10/30 21:21:28;;;;;;;14.82;6.15;;;;;;;11.24;100.00;99447.41;5093523;28;20055;-76
2022/10/30 21:23:56;;;;;;;16.83;6.50;;;;;;;11.17;100.00;99444.56;5097714;28;20465;-77
2022/10/30 21:26:23;;;;;;;14.05;6.65;;;;;;;11.20;100.00;99459.66;5098291;28;20325;-77
2022/10/30 21:28:50;;;;;;;15.88;6.28;;;;;;;11.13;100.00;99465.00;5100520;28;20489;-76
2022/10/30 21:31:16;;;;;;;16.30;6.68;;;;;;;10.92;100.00;99447.47;5099193;28;20044;-76
2022/10/30 21:33:43;;;;;;;13.48;6.20;;;;;;;10.88;100.00;99442.56;5099690;28;20040;-76
2022/10/30 21:36:12;;;;;;;10.77;5.28;;;;;;;10.78;100.00;99440.09;5098099;28;20040;-76
2022/10/30 21:38:40;;;;;;;13.30;6.20;;;;;;;10.73;100.00;99453.34;5097376;28;20053;-76
2022/10/30 21:41:08;;;;;;;14.55;5.57;;;;;;;10.65;100.00;99442.53;5102004;28;20040;-76
2022/10/30 21:43:34;;;;;;;22.65;6.53;;;;;;;10.61;100.00;99450.19;5097941;28;20044;-76
2022/10/30 21:46:04;;;;;;;16.65;6.15;;;;;;;10.61;100.00;99437.47;5095798;28;20044;-76
2022/10/30 21:48:31;;;;;;;16.17;5.70;;;;;;;10.66;100.00;99442.38;5096743;28;20040;-76
2022/10/30 21:51:05;;;;;;;12.68;5.93;;;;;;;10.65;100.00;99458.84;5095619;28;20059;-76
2022/10/30 21:53:31;;;;;;;17.52;6.00;;;;;;;10.53;100.00;99461.97;5099728;28;20513;-76
2022/10/30 21:55:58;;;;;;;14.10;5.80;;;;;;;10.54;100.00;99466.38;5102827;28;20066;-76
2022/10/30 21:58:26;;;;;;;8.68;4.78;;;;;;;10.48;100.00;99453.50;5093919;28;20121;-76
2022/10/30 22:00:52;;;;;;;13.82;5.18;;;;;;;10.42;100.00;99449.59;5098774;28;20040;-77
2022/10/30 22:03:19;;;;;;;16.35;4.88;;;;;;;10.45;100.00;99471.00;5104363;28;20056;-76
2022/10/30 22:05:46;;;;;;;13.60;5.45;;;;;;;10.55;100.00;99468.09;5103213;28;20409;-76
2022/10/30 22:08:13;;;;;;;13.05;4.80;;;;;;;10.48;100.00;99466.22;5100646;28;20147;-76
2022/10/30 22:10:39;;;;;;;11.90;4.65;;;;;;;10.44;100.00;99479.34;5098478;28;20073;-76
2022/10/30 22:13:06;;;;;;;8.60;3.90;;;;;;;10.48;100.00;99474.38;5095800;28;20048;-76
2022/10/30 22:15:34;;;;;;;22.75;6.05;;;;;;;10.31;100.00;99458.09;5099156;28;20404;-76
2022/10/30 22:18:00;;;;;;;14.07;5.97;;;;;;;10.16;100.00;99452.59;5103903;28;20501;-77
2022/10/30 22:20:27;;;;;;;23.60;8.35;;;;;;;10.17;100.00;99458.84;5100189;28;20059;-77
2022/10/30 22:22:54;;;;;;;22.83;6.03;;;;;;;9.96;100.00;99448.56;5096985;28;20041;-77
2022/10/30 22:25:20;;;;;;;11.27;5.95;;;;;;;9.96;100.00;99462.97;5098023;28;20059;-77
2022/10/30 22:27:47;;;;;;;10.35;5.53;;;;;;;9.77;100.00;99455.22;5092433;28;20062;-77
2022/10/30 22:30:14;;;;;;;13.88;5.47;;;;;;;9.94;100.00;99473.19;5099081;28;20047;-77
2022/10/30 22:32:42;;;;;;;14.15;5.72;;;;;;;10.04;100.00;99483.84;5101865;28;20482;-77
2022/10/30 22:35:09;;;;;;;11.98;5.30;;;;;;;10.03;100.00;99480.28;5099512;28;20048;-77
2022/10/30 22:37:35;;;;;;;14.27;5.03;;;;;;;9.74;100.00;99454.56;5099577;28;20406;-77
2022/10/30 22:40:02;;;;;;;22.20;6.22;;;;;;;9.87;100.00;99473.00;5097949;28;20143;-77
2022/10/30 22:42:29;;;;;;;14.10;4.75;;;;;;;9.79;100.00;99470.31;5100692;28;20039;-77
2022/10/30 22:44:55;;;;;;;13.30;5.43;;;;;;;9.81;100.00;99467.44;5098736;28;20049;-77
2022/10/30 22:47:22;;;;;;;12.40;5.25;;;;;;;9.71;100.00;99473.03;5091451;28;20483;-77
2022/10/30 22:49:49;;;;;;;13.05;5.07;;;;;;;9.66;100.00;99448.28;5091043;28;20052;-77
2022/10/30 22:52:16;;;;;;;13.15;5.22;;;;;;;9.70;100.00;99474.91;5098874;28;20139;-77
2022/10/30 22:54:42;;;;;;;12.82;5.10;;;;;;;9.61;100.00;99456.94;5098286;28;20508;-77
2022/10/30 22:57:09;;;;;;;7.55;4.43;;;;;;;9.53;100.00;99459.69;5097280;28;20056;-77
2022/10/30 22:59:35;;;;;;;10.23;5.32;;;;;;;9.66;100.00;99494.44;5108196;28;20044;-77
2022/10/30 23:02:02;;;;;;;11.13;5.00;;;;;;;9.51;100.00;99470.69;5106569;28;20055;-77
2022/10/30 23:04:29;;;;;;;11.60;4.28;;;;;;;9.40;100.00;99457.47;5096473;28;20536;-77
2022/10/30 23:06:57;;;;;;;22.25;6.35;;;;;;;9.59;100.00;99479.84;5095001;28;20043;-77
2022/10/30 23:09:23;;;;;;;14.75;4.88;;;;;;;9.52;100.00;99460.69;5091911;28;20059;-77
2022/10/30 23:11:50;;;;;;;8.93;4.00;;;;;;;9.49;100.00;99467.31;5095110;28;20499;-77
2022/10/30 23:14:17;;;;;;;10.95;4.53;;;;;;;9.59;100.00;99475.28;5098249;28;20414;-77
2022/10/30 23:16:44;;;;;;;8.27;4.22;;;;;;;9.49;100.00;99470.00;5094752;28;20050;-76
2022/10/30 23:19:11;;;;;;;13.48;4.28;;;;;;;9.49;100.00;99474.59;5100047;28;20055;-76
2022/10/30 23:21:38;;;;;;;11.15;4.32;;;;;;;9.53;100.00;99489.53;5097423;28;20054;-76
2022/10/30 23:24:07;;;;;;;12.95;4.28;;;;;;;9.46;100.00;99478.50;5093190;28;20455;-76
2022/10/30 23:26:35;;;;;;;8.27;3.42;;;;;;;9.42;100.00;99474.41;5094633;28;20044;-76
2022/10/30 23:29:02;;;;;;;8.68;4.28;;;;;;;9.44;100.00;99474.25;5105553;28;20121;-76
2022/10/30 23:31:31;;;;;;;9.45;3.70;;;;;;;9.23;100.00;99461.19;5103234;28;20051;-76
2022/10/30 23:33:59;;;;;;;6.30;3.40;;;;;;;9.17;100.00;99451.88;5094711;28;20554;-76
2022/10/30 23:36:26;;;;;;;12.07;4.28;;;;;;;9.19;100.00;99464.25;5095723;28;20058;-76
2022/10/30 23:38:52;;;;;;;13.13;3.42;;;;;;;9.34;100.00;99485.28;5096126;28;20055;-76
2022/10/30 23:41:21;;;;;;;12.20;5.50;;;;;;;9.16;100.00;99459.16;5095412;28;20047;-76
2022/10/30 23:43:47;;;;;;;8.27;4.13;;;;;;;9.27;100.00;99485.09;5093418;28;20054;-76
2022/10/30 23:46:14;;;;;;;9.95;3.45;;;;;;;9.16;100.00;99464.56;5094075;28;20047;-76
2022/10/30 23:48:41;;;;;;;10.38;4.38;;;;;;;9.17;100.00;99485.28;5092686;28;20139;-76